createdAt,value
2022-08-01T00:00:59.360Z,14.63
2022-08-01T00:03:32.066Z,14.59
2022-08-01T00:06:04.672Z,14.54
2022-08-01T00:08:36.838Z,14.50
2022-08-01T00:11:10.771Z,14.46
2022-08-01T00:13:45.110Z,14.43
2022-08-01T00:16:18.394Z,14.40
2022-08-01T00:18:52.387Z,14.38
2022-08-01T00:21:25.251Z,14.36
2022-08-01T00:24:00.276Z,14.33
2022-08-01T00:26:32.833Z,14.31
2022-08-01T00:29:10.134Z,14.29
2022-08-01T00:31:58.586Z,14.26
2022-08-01T00:34:30.453Z,14.25
2022-08-01T00:37:05.069Z,14.22
2022-08-01T00:39:37.636Z,14.18
2022-08-01T00:42:12.039Z,14.16
2022-08-01T00:44:44.853Z,14.14
2022-08-01T00:47:16.739Z,14.11
2022-08-01T00:49:49.413Z,14.09
2022-08-01T00:52:22.263Z,14.07
2022-08-01T00:54:54.235Z,14.04
2022-08-01T00:58:03.637Z,14.03
2022-08-01T01:00:27.157Z,13.99
2022-08-01T01:03:00.621Z,13.97
2022-08-01T01:05:37.279Z,13.94
2022-08-01T01:08:13.780Z,13.91
2022-08-01T01:10:50.772Z,13.88
2022-08-01T01:13:28.575Z,13.84
2022-08-01T01:16:04.764Z,13.81
2022-08-01T01:18:40.608Z,13.79
2022-08-01T01:21:33.340Z,13.77
2022-08-01T01:24:19.869Z,13.75
2022-08-01T01:26:57.353Z,13.72
2022-08-01T01:29:58.786Z,13.70
2022-08-01T01:32:35.197Z,13.66
2022-08-01T01:35:12.268Z,13.63
2022-08-01T01:37:46.978Z,13.61
2022-08-01T01:40:22.811Z,13.58
2022-08-01T01:42:56.858Z,13.55
2022-08-01T01:45:29.681Z,13.52
2022-08-01T01:48:02.675Z,13.49
2022-08-01T01:50:36.577Z,13.46
2022-08-01T01:53:15.421Z,13.44
2022-08-01T01:55:52.907Z,13.40
2022-08-01T01:58:26.649Z,13.36
2022-08-01T02:01:02.869Z,13.33
2022-08-01T02:03:37.855Z,13.29
2022-08-01T02:06:10.621Z,13.25
2022-08-01T02:08:44.373Z,13.21
2022-08-01T02:11:22.639Z,13.17
2022-08-01T02:14:03.288Z,13.13
2022-08-01T02:16:38.631Z,13.11
2022-08-01T02:19:12.843Z,13.09
2022-08-01T02:21:50.379Z,13.07
2022-08-01T02:24:30.403Z,13.04
2022-08-01T02:27:07.597Z,13.01
2022-08-01T02:29:46.294Z,12.98
2022-08-01T02:32:26.328Z,12.96
2022-08-01T02:35:03.099Z,12.92
2022-08-01T02:37:37.546Z,12.89
2022-08-01T02:40:18.345Z,12.86
2022-08-01T02:42:54.121Z,12.83
2022-08-01T02:45:29.749Z,12.80
2022-08-01T02:48:06.487Z,12.76
2022-08-01T02:50:40.457Z,12.71
2022-08-01T02:53:13.486Z,12.68
2022-08-01T02:55:49.353Z,12.66
2022-08-01T02:58:29.355Z,12.64
2022-08-01T03:01:03.776Z,12.62
2022-08-01T03:03:37.565Z,12.60
2022-08-01T03:06:11.212Z,12.57
2022-08-01T03:08:44.147Z,12.56
2022-08-01T03:11:18.636Z,12.54
2022-08-01T03:13:52.980Z,12.52
2022-08-01T03:16:26.816Z,12.50
2022-08-01T03:19:00.569Z,12.48
2022-08-01T03:21:35.485Z,12.49
2022-08-01T03:24:10.435Z,12.48
2022-08-01T03:26:44.697Z,12.49
2022-08-01T03:29:20.879Z,12.49
2022-08-01T03:31:53.695Z,12.48
2022-08-01T03:34:25.980Z,12.47
2022-08-01T03:37:06.447Z,12.47
2022-08-01T03:39:45.450Z,12.47
2022-08-01T03:42:32.450Z,12.50
2022-08-01T03:45:07.365Z,12.56
2022-08-01T03:47:44.633Z,12.66
2022-08-01T03:50:18.935Z,12.84
2022-08-01T03:52:52.946Z,13.02
2022-08-01T03:55:25.879Z,13.12
2022-08-01T03:57:59.407Z,13.17
2022-08-01T04:00:32.929Z,13.21
2022-08-01T04:03:05.733Z,13.27
2022-08-01T04:05:38.984Z,13.29
2022-08-01T04:08:12.225Z,13.33
2022-08-01T04:10:45.493Z,13.39
2022-08-01T04:13:18.706Z,13.43
2022-08-01T04:15:52.205Z,13.48
2022-08-01T04:18:24.859Z,13.54
2022-08-01T04:20:57.892Z,13.63
2022-08-01T04:23:32.458Z,13.71
2022-08-01T04:26:06.664Z,13.81
2022-08-01T04:28:40.597Z,13.92
2022-08-01T04:31:13.798Z,14.04
2022-08-01T04:33:50.077Z,14.16
2022-08-01T04:36:24.845Z,14.27
2022-08-01T04:39:01.030Z,14.39
2022-08-01T04:41:34.270Z,14.51
2022-08-01T04:44:08.594Z,14.61
2022-08-01T04:46:41.548Z,14.71
2022-08-01T04:49:18.269Z,14.78
2022-08-01T04:52:03.207Z,14.88
2022-08-01T04:54:40.023Z,15.01
2022-08-01T04:57:11.984Z,15.12
2022-08-01T04:59:47.773Z,15.23
2022-08-01T05:02:21.390Z,15.32
2022-08-01T05:04:54.220Z,15.41
2022-08-01T05:07:28.153Z,15.49
2022-08-01T05:10:03.254Z,15.61
2022-08-01T05:12:37.731Z,15.71
2022-08-01T05:15:15.448Z,15.80
2022-08-01T05:17:48.600Z,15.90
2022-08-01T05:20:22.875Z,16.00
2022-08-01T05:22:58.309Z,16.12
2022-08-01T05:25:56.944Z,16.22
2022-08-01T05:28:23.291Z,16.30
2022-08-01T05:30:56.884Z,16.38
2022-08-01T05:33:29.033Z,16.47
2022-08-01T05:36:02.625Z,16.57
2022-08-01T05:38:36.538Z,16.68
2022-08-01T05:41:09.304Z,16.77
2022-08-01T05:43:42.965Z,16.88
2022-08-01T05:46:15.657Z,16.96
2022-08-01T05:48:48.310Z,17.03
2022-08-01T05:51:20.900Z,17.11
2022-08-01T05:53:53.397Z,17.20
2022-08-01T05:56:29.390Z,17.29
2022-08-01T05:59:05.103Z,17.38
2022-08-01T06:01:38.438Z,17.49
2022-08-01T06:04:10.843Z,17.58
2022-08-01T06:06:43.630Z,17.68
2022-08-01T06:09:16.819Z,17.82
2022-08-01T06:11:49.627Z,17.91
2022-08-01T06:14:21.894Z,18.00
2022-08-01T06:16:53.778Z,18.08
2022-08-01T06:19:27.364Z,18.21
2022-08-01T06:22:00.518Z,18.32
2022-08-01T06:24:33.363Z,18.42
2022-08-01T06:27:06.342Z,18.49
2022-08-01T06:29:56.689Z,18.59
2022-08-01T06:32:30.889Z,18.68
2022-08-01T06:35:04.708Z,18.82
2022-08-01T06:37:37.042Z,18.97
2022-08-01T06:40:16.673Z,19.07
2022-08-01T06:42:50.060Z,19.15
2022-08-01T06:45:24.003Z,19.26
2022-08-01T06:47:57.630Z,19.36
2022-08-01T06:50:30.560Z,19.47
2022-08-01T06:53:02.687Z,19.54
2022-08-01T06:55:37.920Z,19.61
2022-08-01T06:58:10.639Z,19.71
2022-08-01T07:00:44.218Z,19.88
2022-08-01T07:03:16.961Z,20.04
2022-08-01T07:05:49.863Z,20.23
2022-08-01T07:08:25.473Z,20.39
2022-08-01T07:11:00.483Z,20.52
2022-08-01T07:13:36.710Z,20.66
2022-08-01T07:16:17.876Z,20.82
2022-08-01T07:18:50.757Z,20.95
2022-08-01T07:21:40.665Z,21.08
2022-08-01T07:24:16.960Z,21.20
2022-08-01T07:26:54.582Z,21.32
2022-08-01T07:29:28.877Z,21.43
2022-08-01T07:32:01.617Z,21.56
2022-08-01T07:34:35.835Z,21.65
2022-08-01T07:37:08.892Z,21.79
2022-08-01T07:39:41.955Z,21.92
2022-08-01T07:42:16.555Z,22.07
2022-08-01T07:44:49.146Z,22.19
2022-08-01T07:47:27.478Z,22.35
2022-08-01T07:50:05.299Z,22.52
2022-08-01T07:52:37.731Z,22.68
2022-08-01T07:55:12.155Z,22.83
2022-08-01T07:57:49.567Z,22.99
2022-08-01T08:00:26.022Z,23.21
2022-08-01T08:03:00.371Z,23.44
2022-08-01T08:05:58.423Z,23.64
2022-08-01T08:08:27.399Z,23.80
2022-08-01T08:10:59.975Z,24.00
2022-08-01T08:13:32.693Z,24.27
2022-08-01T08:16:06.354Z,24.57
2022-08-01T08:18:39.837Z,24.85
2022-08-01T08:21:12.084Z,25.13
2022-08-01T08:24:05.036Z,25.29
2022-08-01T08:26:38.792Z,25.49
2022-08-01T08:29:14.109Z,25.72
2022-08-01T08:31:51.195Z,25.82
2022-08-01T08:34:26.202Z,25.96
2022-08-01T08:36:59.247Z,26.06
2022-08-01T08:39:41.537Z,26.16
2022-08-01T08:42:15.924Z,26.30
2022-08-01T08:44:48.398Z,26.50
2022-08-01T08:47:21.267Z,26.66
2022-08-01T08:49:56.593Z,26.62
2022-08-01T08:52:29.709Z,26.63
2022-08-01T08:55:01.927Z,26.71
2022-08-01T08:57:34.862Z,26.79
2022-08-01T09:00:10.622Z,26.86
2022-08-01T09:02:51.241Z,26.90
2022-08-01T09:05:38.554Z,26.88
2022-08-01T09:08:15.753Z,26.80
2022-08-01T09:10:47.856Z,26.79
2022-08-01T09:13:20.749Z,26.72
2022-08-01T09:15:57.065Z,26.59
2022-08-01T09:18:37.825Z,26.34
2022-08-01T09:21:18.287Z,26.21
2022-08-01T09:23:53.323Z,26.20
2022-08-01T09:26:36.291Z,26.19
2022-08-01T09:29:11.226Z,26.13
2022-08-01T09:31:50.807Z,26.11
2022-08-01T09:34:31.475Z,26.01
2022-08-01T09:37:07.797Z,26.06
2022-08-01T09:39:44.411Z,26.09
2022-08-01T09:42:29.513Z,26.12
2022-08-01T09:45:03.162Z,26.13
2022-08-01T09:47:42.698Z,26.05
2022-08-01T09:50:17.625Z,26.05
2022-08-01T09:52:58.199Z,26.09
2022-08-01T09:55:31.495Z,26.12
2022-08-01T09:58:05.661Z,26.12
2022-08-01T10:00:45.252Z,26.14
2022-08-01T10:03:26.312Z,26.22
2022-08-01T10:06:00.565Z,26.30
2022-08-01T10:08:49.738Z,26.35
2022-08-01T10:11:35.896Z,26.38
2022-08-01T10:14:13.268Z,26.46
2022-08-01T10:16:56.674Z,26.52
2022-08-01T10:19:34.020Z,26.47
2022-08-01T10:22:12.887Z,26.48
2022-08-01T10:24:49.495Z,26.64
2022-08-01T10:27:37.754Z,26.68
2022-08-01T10:30:19.918Z,26.74
2022-08-01T10:32:56.768Z,26.90
2022-08-01T10:35:46.556Z,27.00
2022-08-01T10:38:20.697Z,27.10
2022-08-01T10:40:55.958Z,27.18
2022-08-01T10:43:29.249Z,27.24
2022-08-01T10:46:05.150Z,27.30
2022-08-01T10:48:44.001Z,27.38
2022-08-01T10:51:19.120Z,27.45
2022-08-01T10:53:56.243Z,27.50
2022-08-01T10:56:43.008Z,27.57
2022-08-01T10:59:29.157Z,27.60
2022-08-01T11:02:31.706Z,27.67
2022-08-01T11:05:09.645Z,27.72
2022-08-01T11:07:50.838Z,27.76
2022-08-01T11:10:28.313Z,27.83
2022-08-01T11:13:03.069Z,27.91
2022-08-01T11:15:50.547Z,27.98
2022-08-01T11:18:37.823Z,27.99
2022-08-01T11:21:59.279Z,28.00
2022-08-01T11:24:07.136Z,28.03
2022-08-01T11:26:40.742Z,28.15
2022-08-01T11:29:22.384Z,28.28
2022-08-01T11:31:56.127Z,28.10
2022-08-01T11:34:56.852Z,28.00
2022-08-01T11:37:30.619Z,27.99
2022-08-01T11:40:20.621Z,27.87
2022-08-01T11:43:22.440Z,27.76
2022-08-01T11:45:56.493Z,27.65
2022-08-01T11:48:30.543Z,27.72
2022-08-01T11:51:02.514Z,27.69
2022-08-01T11:53:34.709Z,27.53
2022-08-01T11:56:09.446Z,27.42
2022-08-01T11:58:42.615Z,27.38
2022-08-01T12:01:16.416Z,27.49
2022-08-01T12:03:58.229Z,27.54
2022-08-01T12:06:32.345Z,27.37
2022-08-01T12:09:21.521Z,27.29
2022-08-01T12:11:53.962Z,27.24
2022-08-01T12:14:26.001Z,27.32
2022-08-01T12:16:58.560Z,27.55
2022-08-01T12:19:31.548Z,27.76
2022-08-01T12:22:13.438Z,28.12
2022-08-01T12:24:46.437Z,28.43
2022-08-01T12:27:28.707Z,28.58
2022-08-01T12:30:05.595Z,28.53
2022-08-01T12:32:38.879Z,28.40
2022-08-01T12:35:17.904Z,28.32
2022-08-01T12:37:52.710Z,28.29
2022-08-01T12:40:26.234Z,28.44
2022-08-01T12:43:00.675Z,28.64
2022-08-01T12:45:35.919Z,28.76
2022-08-01T12:48:12.651Z,28.81
2022-08-01T12:50:47.309Z,28.64
2022-08-01T12:53:21.517Z,28.27
2022-08-01T12:56:00.096Z,27.99
2022-08-01T12:58:37.168Z,27.93
2022-08-01T13:01:11.841Z,27.87
2022-08-01T13:03:46.480Z,27.68
2022-08-01T13:06:20.218Z,27.51
2022-08-01T13:08:52.715Z,27.63
2022-08-01T13:11:24.604Z,27.76
2022-08-01T13:13:58.306Z,27.74
2022-08-01T13:16:55.935Z,27.98
2022-08-01T13:19:29.834Z,28.26
2022-08-01T13:22:06.069Z,28.52
2022-08-01T13:24:39.435Z,28.87
2022-08-01T13:27:31.198Z,29.26
2022-08-01T13:30:15.717Z,29.37
2022-08-01T13:32:59.144Z,29.57
2022-08-01T13:35:31.757Z,29.92
2022-08-01T13:38:03.907Z,30.07
2022-08-01T13:40:36.478Z,30.09
2022-08-01T13:43:09.108Z,30.50
2022-08-01T13:45:41.601Z,30.70
2022-08-01T13:48:18.699Z,30.71
2022-08-01T13:51:02.078Z,30.82
2022-08-01T13:53:44.664Z,30.76
2022-08-01T13:56:19.447Z,30.77
2022-08-01T13:58:52.287Z,30.76
2022-08-01T14:01:32.309Z,30.70
2022-08-01T14:04:07.366Z,30.30
2022-08-01T14:06:40.424Z,29.80
2022-08-01T14:09:24.095Z,29.79
2022-08-01T14:11:57.086Z,29.76
2022-08-01T14:14:30.169Z,29.91
2022-08-01T14:17:02.890Z,29.83
2022-08-01T14:19:38.239Z,29.77
2022-08-01T14:22:12.424Z,29.62
2022-08-01T14:24:46.003Z,29.45
2022-08-01T14:27:19.627Z,29.26
2022-08-01T14:30:00.270Z,28.98
2022-08-01T14:32:35.336Z,28.66
2022-08-01T14:35:08.743Z,28.37
2022-08-01T14:37:44.543Z,27.97
2022-08-01T14:40:19.791Z,27.73
2022-08-01T14:42:52.272Z,27.43
2022-08-01T14:45:25.363Z,27.15
2022-08-01T14:47:59.008Z,26.81
2022-08-01T14:50:31.906Z,26.78
2022-08-01T14:53:04.430Z,26.88
2022-08-01T14:55:41.794Z,27.08
2022-08-01T14:58:15.786Z,27.65
2022-08-01T15:00:49.386Z,28.35
2022-08-01T15:03:22.411Z,28.80
2022-08-01T15:05:54.642Z,29.11
2022-08-01T15:08:27.842Z,29.42
2022-08-01T15:11:03.689Z,30.02
2022-08-01T15:13:39.220Z,30.52
2022-08-01T15:16:14.735Z,30.70
2022-08-01T15:18:48.663Z,30.50
2022-08-01T15:21:39.852Z,30.36
2022-08-01T15:24:14.560Z,30.17
2022-08-01T15:26:50.493Z,30.13
2022-08-01T15:29:24.051Z,30.03
2022-08-01T15:31:57.624Z,29.91
2022-08-01T15:34:30.701Z,29.86
2022-08-01T15:37:04.338Z,29.88
2022-08-01T15:39:37.701Z,29.86
2022-08-01T15:42:21.579Z,29.87
2022-08-01T15:44:59.484Z,29.83
2022-08-01T15:47:31.487Z,29.54
2022-08-01T15:50:08.652Z,29.22
2022-08-01T15:52:41.375Z,28.89
2022-08-01T15:55:14.193Z,28.69
2022-08-01T15:57:47.800Z,28.42
2022-08-01T16:00:20.578Z,28.01
2022-08-01T16:02:53.834Z,27.65
2022-08-01T16:05:26.060Z,27.28
2022-08-01T16:08:01.777Z,27.02
2022-08-01T16:10:34.257Z,26.76
2022-08-01T16:13:07.824Z,26.57
2022-08-01T16:15:41.007Z,26.36
2022-08-01T16:18:16.358Z,26.15
2022-08-01T16:20:49.352Z,25.97
2022-08-01T16:23:22.727Z,25.87
2022-08-01T16:25:55.619Z,25.75
2022-08-01T16:28:29.160Z,25.62
2022-08-01T16:31:15.827Z,25.46
2022-08-01T16:34:27.570Z,25.35
2022-08-01T16:37:07.554Z,25.24
2022-08-01T16:39:40.094Z,25.09
2022-08-01T16:42:27.659Z,25.04
2022-08-01T16:45:08.619Z,25.03
2022-08-01T16:48:10.210Z,25.03
2022-08-01T16:51:09.384Z,25.03
2022-08-01T16:53:41.903Z,25.03
2022-08-01T16:56:14.387Z,25.02
2022-08-01T16:58:46.998Z,24.98
2022-08-01T17:01:58.659Z,24.95
2022-08-01T17:04:13.524Z,24.92
2022-08-01T17:06:46.386Z,24.86
2022-08-01T17:09:18.749Z,24.81
2022-08-01T17:11:51.974Z,24.75
2022-08-01T17:14:24.225Z,24.70
2022-08-01T17:16:57.747Z,24.64
2022-08-01T17:19:33.077Z,24.58
2022-08-01T17:22:05.827Z,24.51
2022-08-01T17:24:39.112Z,24.42
2022-08-01T17:27:13.300Z,24.36
2022-08-01T17:29:51.605Z,24.31
2022-08-01T17:32:26.653Z,24.27
2022-08-01T17:35:03.168Z,24.21
2022-08-01T17:37:38.685Z,24.20
2022-08-01T17:40:39.254Z,24.19
2022-08-01T17:43:07.246Z,24.19
2022-08-01T17:45:50.550Z,24.18
2022-08-01T17:48:24.140Z,24.15
2022-08-01T17:50:58.170Z,24.10
2022-08-01T17:53:57.090Z,24.02
2022-08-01T17:56:33.626Z,23.92
2022-08-01T17:59:10.091Z,23.84
2022-08-01T18:01:45.597Z,23.77
2022-08-01T18:04:26.951Z,23.71
2022-08-01T18:07:10.443Z,23.63
2022-08-01T18:10:12.263Z,23.56
2022-08-01T18:12:49.405Z,23.49
2022-08-01T18:15:27.001Z,23.40
2022-08-01T18:18:08.629Z,23.32
2022-08-01T18:20:41.816Z,23.24
2022-08-01T18:23:22.683Z,23.17
2022-08-01T18:26:01.506Z,23.11
2022-08-01T18:28:42.069Z,23.05
2022-08-01T18:31:27.722Z,22.98
2022-08-01T18:34:28.526Z,22.91
2022-08-01T18:37:06.089Z,22.83
2022-08-01T18:39:46.569Z,22.75
2022-08-01T18:42:20.004Z,22.65
2022-08-01T18:44:54.087Z,22.54
2022-08-01T18:47:26.758Z,22.45
2022-08-01T18:50:06.697Z,22.37
2022-08-01T18:52:44.181Z,22.27
2022-08-01T18:55:22.111Z,22.19
2022-08-01T18:57:55.800Z,22.07
2022-08-01T19:00:27.859Z,22.00
2022-08-01T19:03:27.466Z,21.92
2022-08-01T19:06:08.442Z,21.82
2022-08-01T19:09:08.004Z,21.73
2022-08-01T19:12:07.407Z,21.62
2022-08-01T19:14:43.636Z,21.50
2022-08-01T19:17:18.442Z,21.42
2022-08-01T19:19:59.515Z,21.32
2022-08-01T19:22:33.162Z,21.23
2022-08-01T19:25:11.462Z,21.15
2022-08-01T19:27:54.781Z,21.07
2022-08-01T19:30:31.228Z,20.99
2022-08-01T19:33:06.378Z,20.92
2022-08-01T19:35:40.539Z,20.86
2022-08-01T19:38:18.306Z,20.79
2022-08-01T19:40:53.650Z,20.73
2022-08-01T19:44:17.271Z,20.66
2022-08-01T19:50:00.863Z,20.52
2022-08-01T19:52:38.563Z,20.46
2022-08-01T19:55:14.964Z,20.41
2022-08-01T19:58:28.562Z,20.36
2022-08-01T20:01:06.448Z,20.28
2022-08-01T20:03:48.112Z,20.22
2022-08-01T20:06:26.452Z,20.15
2022-08-01T20:09:04.025Z,20.10
2022-08-01T20:11:39.335Z,20.05
2022-08-01T20:14:20.716Z,19.99
2022-08-01T20:17:16.271Z,19.95
2022-08-01T20:19:50.637Z,19.92
2022-08-01T20:22:31.483Z,19.90
2022-08-01T20:25:12.958Z,19.88
2022-08-01T20:27:49.969Z,19.87
2022-08-01T20:30:22.984Z,19.86
2022-08-01T20:33:00.039Z,19.84
2022-08-01T20:35:52.316Z,19.81
2022-08-01T20:38:52.708Z,19.79
2022-08-01T20:41:33.377Z,19.77
2022-08-01T20:44:17.433Z,19.76
2022-08-01T20:46:52.355Z,19.77
2022-08-01T20:49:27.265Z,19.78
2022-08-01T20:52:11.373Z,19.81
2022-08-01T20:55:18.332Z,19.84
2022-08-01T20:57:53.842Z,19.87
2022-08-01T21:00:49.230Z,19.89
2022-08-01T21:03:27.499Z,19.92
2022-08-01T21:13:01.391Z,20.04
2022-08-01T21:16:23.857Z,20.06
2022-08-01T21:19:49.013Z,20.08
2022-08-01T21:22:55.211Z,20.11
2022-08-01T21:25:34.997Z,20.10
2022-08-01T21:28:10.060Z,20.02
2022-08-01T21:30:55.439Z,19.92
2022-08-01T21:36:59.579Z,19.69
2022-08-01T21:39:35.749Z,19.62
2022-08-01T21:42:15.184Z,19.56
2022-08-01T21:44:51.988Z,19.50
2022-08-01T21:47:54.888Z,19.45
2022-08-01T21:50:37.155Z,19.39
2022-08-01T21:53:17.014Z,19.34
2022-08-01T21:56:33.209Z,19.28
2022-08-01T21:59:40.560Z,19.24
2022-08-01T22:02:19.709Z,19.20
2022-08-01T22:04:59.283Z,19.18
2022-08-01T22:07:41.356Z,19.16
2022-08-01T22:13:22.451Z,19.12
2022-08-01T22:15:59.165Z,19.12
2022-08-01T22:18:35.943Z,19.11
2022-08-01T22:21:12.267Z,19.09
2022-08-01T22:23:46.428Z,19.09
2022-08-01T22:26:24.662Z,19.08
2022-08-01T22:29:09.740Z,19.06
2022-08-01T22:31:48.766Z,19.03
2022-08-01T22:34:23.138Z,19.01
2022-08-01T22:37:55.874Z,19.01
2022-08-01T22:41:11.370Z,18.98
2022-08-01T22:44:14.681Z,18.94
2022-08-01T22:47:21.487Z,18.93
2022-08-01T22:50:09.950Z,18.93
2022-08-01T22:52:56.194Z,18.92
2022-08-01T22:55:57.790Z,18.89
2022-08-01T22:58:51.841Z,18.87
2022-08-01T23:01:53.705Z,18.84
2022-08-01T23:04:35.049Z,18.81
2022-08-01T23:07:10.190Z,18.80
2022-08-01T23:09:53.873Z,18.77
2022-08-01T23:12:31.407Z,18.75
2022-08-01T23:15:33.923Z,18.72
2022-08-01T23:18:11.339Z,18.70
2022-08-01T23:21:09.098Z,18.67
2022-08-01T23:24:06.372Z,18.65
2022-08-01T23:26:41.806Z,18.62
2022-08-01T23:29:16.897Z,18.60
2022-08-01T23:32:16.656Z,18.58
2022-08-01T23:34:59.776Z,18.56
2022-08-01T23:38:02.887Z,18.52
2022-08-01T23:40:38.976Z,18.49
2022-08-01T23:43:14.617Z,18.44
2022-08-01T23:46:19.130Z,18.41
2022-08-01T23:48:52.922Z,18.37
2022-08-01T23:51:28.553Z,18.34
2022-08-01T23:54:26.563Z,18.29
2022-08-01T23:57:03.787Z,18.26
2022-08-01T23:59:52.986Z,18.23
